NEW EXCHEQUER-LK MCCLURE (EXC)

Elevation: 879' · MERCED R basin · Operator: Merced Irrigation District

Provisional data, subject to change.
Query executed Friday at 3:01:11   clock

Select a sensor type for a plot of data.
Note: Reservoir Flows are daily averages.

Earlier

Date RES ELE    STORAGE    RES CHG    TOC STO    ABV TOC    OUTFLOW    INFLOW    PPT INC    TEMP MN    TEMP MX    TEMP AV    EVP PAN   
 FEET   AF   AF   AF   AF   CFS   CFS   INCHES   DEG F   DEG F   DEG F   INCHES  
08/31/2016 756.35 439207 -1987 1018862 -579655 1167 90 0.00 68 91 78 0.38
09/01/2016 755.81 437188 -1869 1013125 -575937 1071 53 0.00 64 91 77 43581.00
09/02/2016 755.21 434954 -1973 1007387 -572433 1190 63 0.00 66 90 77 0.33
09/03/2016 754.70 433061 -1745 1001649 -568588 1050 96 0.00 62 86 73 0.35
09/04/2016 754.26 431432 -1443 995911 -564479 908 86 0.00 53 78 67 0.00
09/05/2016 753.73 429477 -1734 990174 -560697 1075 89 0.00 60 83 72 13860.00
09/06/2016 753.08 427088 -1912 984436 -557348 1012 0 0.00 63 90 75 0.32
09/07/2016 752.68 425622 -1393 978698 -553076 831 92 0.00 66 93 79 0.00
09/08/2016 752.16 423722 -1755 972961 -549239 1031 73 0.00 68 92 79 0.36
09/09/2016 751.73 422155 -1640 967223 -545068 892 101 0.00 66 93 79 0.33
09/10/2016 751.22 420301 -1926 961485 -541184 976 41 0.00 68 94 81 0.37
09/11/2016 750.79 418745 -1629 955748 -537002 888 103 0.00 70 91 80 0.39
09/12/2016 750.11 416289 -1987 950010 -533721 1246 8 0.00 50 82 71 0.35
09/13/2016 749.69 414778 -1331 944272 -802494 860 98 0.00 51 73 63 0.24
09/14/2016 749.16 412877 271386 938534 -525657 1061 102 0.00 58 80 67 0.00
09/15/2016 748.68 411161 -1502 932797 -521636 929 64 0.00 60 85 71 0.28
09/16/2016 748.20 409449 -1498 927059 -517610 939 75 0.00 62 89 74 0.28
09/17/2016 747.75 407850 -1351 921321 -513471 859 52 0.00 65 93 78 0.32
09/18/2016 747.29 406219 -1419 915584 -509365 931 108 0.00 68 96 80 0.35
09/19/2016 746.90 404840 -1414 909846 -505006 779 83 0.00 69 101 84 1.67
09/20/2016 746.44 403218 -1552 904108 -500890 872 54 0.00 68 92 78 0.00
09/21/2016 746.06 401881 -1372 898370 -496489 810 136 0.00 61 82 72 0.22
09/22/2016 745.51 399952 -1718 892633 -492681 1062 89 0.00 53 72 63 0.24
09/23/2016 745.02 398240 -1712 886895 -488655 915 52 0.00 56 79 68 0.30
09/24/2016 744.52 396498 -1534 881157 -484659 970 92 0.00 58 85 70 0.27
09/25/2016 743.95 394517 -2015 875420 -480903 1061 62 0.00 63 94 76 0.30
09/26/2016 743.39 392580 -1453 869682 -477102 815 0 0.00 66 97 79 0.39
09/27/2016 742.99 391201 -1449 863944 -472743 794 99 0.00 67 95 79 42844.00
09/28/2016 742.59 389823 -1446 858206 -468384 796 101 0.00 57 96 80 0.37
09/29/2016 -- -- -- -- -- -- -- -- -- -- -- 0.00
09/30/2016 -- -- -- -- -- -- -- -- -- -- -- --

Later | Latest

Warning! This data is preliminary and subject to revision.

Show EXC Map | Plot EXC Data | 1 Month EXC Data | Real-Time EXC Data | EXC Info